createdAt,value
2023-01-15T00:02:12.939Z,99666.94
2023-01-15T00:04:41.453Z,99664.63
2023-01-15T00:07:11.192Z,99677.00
2023-01-15T00:09:39.508Z,99673.47
2023-01-15T00:12:07.934Z,99667.00
2023-01-15T00:14:36.323Z,99666.94
2023-01-15T00:17:04.710Z,99670.41
2023-01-15T00:19:33.165Z,99568.78
2023-01-15T00:22:01.453Z,99671.50
2023-01-15T00:24:48.710Z,99668.97
2023-01-15T00:27:34.512Z,99656.53
2023-01-15T00:30:02.941Z,99657.44
2023-01-15T00:32:31.447Z,99626.94
2023-01-15T00:35:00.520Z,99651.34
2023-01-15T00:37:29.438Z,99667.41
2023-01-15T00:39:59.267Z,99649.59
2023-01-15T00:42:27.663Z,99661.00
2023-01-15T00:44:56.266Z,99663.72
2023-01-15T00:47:24.783Z,99653.28
2023-01-15T00:49:53.425Z,99660.22
2023-01-15T00:52:21.710Z,99651.59
2023-01-15T00:54:50.056Z,99643.09
2023-01-15T00:57:19.746Z,99642.28
2023-01-15T00:59:48.497Z,99659.09
2023-01-15T01:02:17.136Z,99636.44
2023-01-15T01:04:45.677Z,99664.25
2023-01-15T01:07:14.419Z,99661.72
2023-01-15T01:09:43.510Z,99646.00
2023-01-15T01:12:12.161Z,99659.84
2023-01-15T01:14:41.878Z,99657.25
2023-01-15T01:17:10.668Z,99675.66
2023-01-15T01:19:39.019Z,99667.88
2023-01-15T01:22:09.243Z,99671.28
2023-01-15T01:24:37.678Z,99672.13
2023-01-15T01:27:08.097Z,99679.19
2023-01-15T01:29:36.491Z,99673.13
2023-01-15T01:32:07.013Z,99682.78
2023-01-15T01:34:36.322Z,99670.59
2023-01-15T01:37:04.763Z,99665.28
2023-01-15T01:39:34.518Z,99666.00
2023-01-15T01:42:02.990Z,99673.94
2023-01-15T01:45:04.374Z,99694.53
2023-01-15T01:47:35.799Z,99549.78
2023-01-15T01:50:11.057Z,99680.19
2023-01-15T01:52:46.515Z,99686.28
2023-01-15T01:55:18.628Z,99670.78
2023-01-15T01:57:49.990Z,99683.09
2023-01-15T02:00:20.746Z,99671.63
2023-01-15T02:02:51.871Z,99676.03
2023-01-15T02:05:29.465Z,99673.28
2023-01-15T02:07:58.069Z,99676.88
2023-01-15T02:10:26.706Z,99674.03
2023-01-15T02:13:01.869Z,99669.75
2023-01-15T02:15:37.624Z,99682.06
2023-01-15T02:18:17.578Z,99654.13
2023-01-15T02:20:52.418Z,99674.91
2023-01-15T02:23:34.975Z,99670.56
2023-01-15T02:26:27.539Z,99667.19
2023-01-15T02:29:00.659Z,99676.69
2023-01-15T02:31:35.944Z,99680.81
2023-01-15T02:34:11.756Z,99669.41
2023-01-15T02:36:54.463Z,99664.47
2023-01-15T02:39:29.808Z,99669.59
2023-01-15T02:42:03.417Z,99665.31
2023-01-15T02:44:43.000Z,99667.28
2023-01-15T02:47:15.040Z,99674.91
2023-01-15T02:49:46.673Z,99664.31
2023-01-15T02:52:24.404Z,99646.06
2023-01-15T02:54:59.876Z,99666.03
2023-01-15T02:57:33.573Z,99658.31
2023-01-15T03:00:08.456Z,99646.00
2023-01-15T03:02:42.709Z,99650.44
2023-01-15T03:05:19.818Z,99667.00
2023-01-15T03:07:53.186Z,99663.53
2023-01-15T03:10:31.760Z,99648.53
2023-01-15T03:13:03.820Z,99647.88
2023-01-15T03:16:10.127Z,99581.97
2023-01-15T03:18:46.923Z,99662.56
2023-01-15T03:21:22.768Z,99647.69
2023-01-15T03:23:56.187Z,99626.56
2023-01-15T03:26:28.392Z,99648.69
2023-01-15T03:29:00.669Z,99646.00
2023-01-15T03:31:31.629Z,99644.16
2023-01-15T03:34:00.496Z,99606.13
2023-01-15T03:36:30.133Z,99632.22
2023-01-15T03:39:02.902Z,99638.19
2023-01-15T03:42:07.835Z,99645.34
2023-01-15T03:44:42.371Z,99637.63
2023-01-15T03:47:29.869Z,99624.59
2023-01-15T03:50:06.240Z,99641.28
2023-01-15T03:52:47.022Z,99625.28
2023-01-15T03:55:21.988Z,99600.91
2023-01-15T03:58:14.822Z,99614.03
2023-01-15T04:00:53.061Z,99625.44
2023-01-15T04:03:28.381Z,99597.78
2023-01-15T04:06:01.238Z,99616.88
2023-01-15T04:08:35.871Z,99629.06
2023-01-15T04:11:04.807Z,99631.59
2023-01-15T04:13:38.678Z,99629.06
2023-01-15T04:16:09.648Z,99624.63
2023-01-15T04:18:39.414Z,99626.47
2023-01-15T04:21:07.849Z,99641.41
2023-01-15T04:23:36.503Z,99639.63
2023-01-15T04:26:05.039Z,99646.72
2023-01-15T04:28:33.528Z,99623.78
2023-01-15T04:31:02.128Z,99523.75
2023-01-15T04:33:30.495Z,99631.53
2023-01-15T04:36:02.367Z,99636.13
2023-01-15T04:38:30.978Z,99639.63
2023-01-15T04:41:20.591Z,99629.91
2023-01-15T04:44:06.759Z,99629.16
2023-01-15T04:46:36.895Z,99609.22
2023-01-15T04:49:06.234Z,99607.84
2023-01-15T04:51:36.603Z,99631.84
2023-01-15T04:54:06.663Z,99615.03
2023-01-15T04:56:39.137Z,99617.63
2023-01-15T04:59:08.004Z,99675.84
2023-01-15T05:01:37.009Z,99633.72
2023-01-15T05:04:06.533Z,99633.66
2023-01-15T05:06:36.544Z,99616.97
2023-01-15T05:09:06.683Z,99633.94
2023-01-15T05:11:38.100Z,99614.44
2023-01-15T05:14:07.548Z,99619.88
2023-01-15T05:16:38.257Z,99624.13
2023-01-15T05:19:08.225Z,99600.66
2023-01-15T05:21:42.555Z,99614.47
2023-01-15T05:24:15.927Z,99607.59
2023-01-15T05:26:45.303Z,99625.00
2023-01-15T05:29:14.089Z,99612.00
2023-01-15T05:31:45.095Z,99621.66
2023-01-15T05:34:14.805Z,99608.50
2023-01-15T05:36:44.639Z,99599.97
2023-01-15T05:39:13.075Z,99619.97
2023-01-15T05:41:50.466Z,99616.50
2023-01-15T05:44:22.562Z,99615.53
2023-01-15T05:46:52.438Z,99644.19
2023-01-15T05:49:23.954Z,99622.25
2023-01-15T05:51:55.728Z,99620.91
2023-01-15T05:54:27.644Z,99620.22
2023-01-15T05:56:56.814Z,99622.06
2023-01-15T05:59:28.065Z,99621.06
2023-01-15T06:01:57.469Z,99612.47
2023-01-15T06:04:26.567Z,99615.09
2023-01-15T06:06:58.547Z,99598.66
2023-01-15T06:09:28.296Z,99620.22
2023-01-15T06:11:57.114Z,99580.31
2023-01-15T06:14:26.002Z,99598.50
2023-01-15T06:16:54.425Z,99589.91
2023-01-15T06:19:22.825Z,99624.66
2023-01-15T06:21:51.480Z,99629.88
2023-01-15T06:24:21.168Z,99641.41
2023-01-15T06:26:49.586Z,99640.53
2023-01-15T06:29:20.422Z,99630.81
2023-01-15T06:31:49.731Z,99626.50
2023-01-15T06:34:18.388Z,99643.19
2023-01-15T06:36:46.863Z,99579.06
2023-01-15T06:39:15.337Z,99604.63
2023-01-15T06:42:02.672Z,99576.31
2023-01-15T06:44:48.721Z,99631.91
2023-01-15T06:47:23.209Z,99590.19
2023-01-15T06:49:54.955Z,99624.16
2023-01-15T06:52:24.406Z,99615.47
2023-01-15T06:54:53.419Z,99600.59
2023-01-15T06:57:23.371Z,99610.22
2023-01-15T06:59:52.129Z,99583.47
2023-01-15T07:02:21.711Z,99606.09
2023-01-15T07:04:50.615Z,99605.94
2023-01-15T07:07:20.878Z,99612.06
2023-01-15T07:09:49.404Z,99603.28
2023-01-15T07:12:18.404Z,99614.69
2023-01-15T07:14:48.289Z,99604.19
2023-01-15T07:17:16.881Z,99603.34
2023-01-15T07:19:45.724Z,99596.38
2023-01-15T07:22:14.320Z,99624.25
2023-01-15T07:24:42.695Z,99633.00
2023-01-15T07:27:10.999Z,99610.38
2023-01-15T07:29:39.325Z,99614.84
2023-01-15T07:32:09.357Z,99633.03
2023-01-15T07:34:37.820Z,99618.13
2023-01-15T07:37:06.297Z,99602.31
2023-01-15T07:39:34.752Z,99608.34
2023-01-15T07:42:21.172Z,99604.78
2023-01-15T07:45:07.121Z,99615.41
2023-01-15T07:47:54.621Z,99604.16
2023-01-15T07:50:25.153Z,99662.91
2023-01-15T07:52:53.944Z,99536.25
2023-01-15T07:55:23.125Z,99607.56
2023-01-15T07:57:52.389Z,99601.28
2023-01-15T08:00:24.421Z,99583.25
2023-01-15T08:02:54.217Z,99595.97
2023-01-15T08:05:22.578Z,99597.78
2023-01-15T08:07:51.007Z,99559.50
2023-01-15T08:10:20.825Z,99615.06
2023-01-15T08:13:18.771Z,99601.66
2023-01-15T08:15:47.321Z,99620.50
2023-01-15T08:18:19.035Z,99616.88
2023-01-15T08:20:47.489Z,99582.56
2023-01-15T08:23:15.941Z,99584.66
2023-01-15T08:25:46.570Z,99615.25
2023-01-15T08:28:15.703Z,99613.31
2023-01-15T08:30:44.033Z,99626.59
2023-01-15T08:33:12.483Z,99610.97
2023-01-15T08:35:42.254Z,99617.81
2023-01-15T08:38:10.737Z,99616.06
2023-01-15T08:40:58.993Z,99597.00
2023-01-15T08:43:28.230Z,99613.28
2023-01-15T08:45:59.089Z,99618.06
2023-01-15T08:48:28.634Z,99634.41
2023-01-15T08:50:58.987Z,99607.19
2023-01-15T08:53:29.655Z,99635.28
2023-01-15T08:55:58.017Z,99615.31
2023-01-15T08:58:29.188Z,99607.84
2023-01-15T09:00:57.978Z,99601.75
2023-01-15T09:03:28.916Z,99605.91
2023-01-15T09:06:01.806Z,99610.44
2023-01-15T09:08:31.202Z,99611.31
2023-01-15T09:11:00.136Z,99603.31
2023-01-15T09:13:30.133Z,99615.53
2023-01-15T09:16:01.006Z,99612.84
2023-01-15T09:18:29.500Z,99599.75
2023-01-15T09:20:57.909Z,99614.03
2023-01-15T09:23:28.404Z,99613.75
2023-01-15T09:25:59.442Z,99513.09
2023-01-15T09:28:28.867Z,99594.59
2023-01-15T09:30:57.214Z,99616.28
2023-01-15T09:33:25.935Z,99607.63
2023-01-15T09:35:55.274Z,99616.25
2023-01-15T09:38:23.672Z,99609.25
2023-01-15T09:40:57.378Z,99608.31
2023-01-15T09:43:49.982Z,99623.34
2023-01-15T09:46:24.438Z,99587.66
2023-01-15T09:49:04.522Z,99630.06
2023-01-15T09:51:44.909Z,99571.53
2023-01-15T09:54:39.855Z,99584.97
2023-01-15T09:57:13.564Z,99652.84
2023-01-15T09:59:44.620Z,99630.78
2023-01-15T10:02:24.415Z,99609.88
2023-01-15T10:04:57.536Z,99593.16
2023-01-15T10:07:34.386Z,99639.19
2023-01-15T10:10:11.651Z,99651.44
2023-01-15T10:12:44.675Z,99652.84
2023-01-15T10:15:24.033Z,99619.09
2023-01-15T10:17:55.410Z,99646.28
2023-01-15T10:21:03.206Z,99653.19
2023-01-15T10:23:39.206Z,99654.19
2023-01-15T10:26:26.454Z,99660.13
2023-01-15T10:29:03.475Z,99670.56
2023-01-15T10:31:54.302Z,99665.88
2023-01-15T10:34:57.794Z,99632.16
2023-01-15T10:37:32.479Z,99607.81
2023-01-15T10:40:24.583Z,99634.06
2023-01-15T10:43:04.194Z,99642.94
2023-01-15T10:45:39.236Z,99639.44
2023-01-15T10:48:15.379Z,99652.44
2023-01-15T10:50:44.456Z,99645.50
2023-01-15T10:53:20.623Z,99651.59
2023-01-15T10:55:54.285Z,99617.56
2023-01-15T10:58:31.344Z,99621.25
2023-01-15T11:01:06.766Z,99649.00
2023-01-15T11:03:39.843Z,99651.06
2023-01-15T11:06:14.361Z,99650.16
2023-01-15T11:12:03.596Z,99643.47
2023-01-15T11:14:55.664Z,99670.28
2023-01-15T11:17:47.209Z,99673.88
2023-01-15T11:20:29.222Z,99659.19
2023-01-15T11:22:58.592Z,99670.69
2023-01-15T11:25:30.000Z,99655.97
2023-01-15T11:28:00.307Z,99645.81
2023-01-15T11:30:32.888Z,99643.88
2023-01-15T11:33:04.941Z,99650.31
2023-01-15T11:35:35.089Z,99673.47
2023-01-15T11:38:06.327Z,99636.94
2023-01-15T11:40:35.276Z,99636.84
2023-01-15T11:43:21.237Z,99677.84
2023-01-15T11:46:08.539Z,99658.69
2023-01-15T11:49:03.580Z,99634.94
2023-01-15T11:51:39.317Z,99679.16
2023-01-15T11:54:12.233Z,99658.13
2023-01-15T11:56:44.683Z,99651.38
2023-01-15T11:59:17.554Z,99654.03
2023-01-15T12:02:00.041Z,99660.16
2023-01-15T12:04:38.349Z,99680.31
2023-01-15T12:07:13.948Z,99615.09
2023-01-15T12:10:04.727Z,99671.81
2023-01-15T12:12:41.129Z,99671.00
2023-01-15T12:15:31.850Z,99668.53
2023-01-15T12:18:10.689Z,99655.75
2023-01-15T12:20:59.552Z,99665.25
2023-01-15T12:23:59.874Z,99624.22
2023-01-15T12:26:30.650Z,99669.50
2023-01-15T12:29:04.418Z,99679.94
2023-01-15T12:31:39.139Z,99643.47
2023-01-15T12:34:19.226Z,99672.13
2023-01-15T12:36:53.556Z,99647.75
2023-01-15T12:39:27.625Z,99666.41
2023-01-15T12:42:17.812Z,99651.97
2023-01-15T12:45:04.680Z,99668.16
2023-01-15T12:47:41.452Z,99666.69
2023-01-15T12:50:31.055Z,99658.94
2023-01-15T12:53:08.512Z,99644.56
2023-01-15T12:55:45.008Z,99634.19
2023-01-15T12:58:28.468Z,99692.84
2023-01-15T13:01:11.789Z,99650.94
2023-01-15T13:03:52.939Z,99661.19
2023-01-15T13:06:27.023Z,99674.59
2023-01-15T13:09:04.085Z,99677.09
2023-01-15T13:11:33.153Z,99653.84
2023-01-15T13:14:01.628Z,99660.72
2023-01-15T13:16:43.700Z,99658.38
2023-01-15T13:19:37.368Z,99656.34
2023-01-15T13:22:12.080Z,99669.97
2023-01-15T13:25:28.743Z,99667.06
2023-01-15T13:28:25.962Z,99676.47
2023-01-15T13:31:10.956Z,99667.03
2023-01-15T13:33:44.356Z,99664.16
2023-01-15T13:36:17.959Z,99673.53
2023-01-15T13:38:50.736Z,99616.88
2023-01-15T13:41:39.209Z,99665.84
2023-01-15T13:44:07.965Z,99692.91
2023-01-15T13:46:36.426Z,99516.34
2023-01-15T13:49:05.685Z,99685.91
2023-01-15T13:51:37.842Z,99704.22
2023-01-15T13:54:13.478Z,99673.69
2023-01-15T13:56:44.693Z,99692.03
2023-01-15T13:59:44.172Z,99706.88
2023-01-15T14:02:30.339Z,99700.94
2023-01-15T14:04:59.873Z,99693.09
2023-01-15T14:07:37.231Z,99716.44
2023-01-15T14:10:11.743Z,99701.19
2023-01-15T14:12:52.431Z,99710.63
2023-01-15T14:15:41.669Z,99703.94
2023-01-15T14:18:44.442Z,99709.91
2023-01-15T14:21:29.655Z,99693.34
2023-01-15T14:24:22.678Z,99712.69
2023-01-15T14:26:58.531Z,99698.84
2023-01-15T14:30:11.961Z,99696.41
2023-01-15T14:32:59.298Z,99392.63
2023-01-15T14:35:29.073Z,99712.38
2023-01-15T14:38:02.006Z,99701.88
2023-01-15T14:40:34.479Z,99720.13
2023-01-15T14:43:10.434Z,99713.13
2023-01-15T14:45:42.579Z,99682.50
2023-01-15T14:48:21.461Z,99716.44
2023-01-15T14:50:50.218Z,99719.94
2023-01-15T14:53:39.523Z,99706.13
2023-01-15T14:56:19.539Z,99389.72
2023-01-15T14:58:54.571Z,99721.06
2023-01-15T15:01:45.889Z,99725.22
2023-01-15T15:04:29.221Z,99727.84
2023-01-15T15:07:00.562Z,99738.66
2023-01-15T15:09:35.945Z,99686.50
2023-01-15T15:12:24.075Z,99713.06
2023-01-15T15:15:02.018Z,99717.69
2023-01-15T15:17:44.765Z,99708.41
2023-01-15T15:20:29.251Z,99728.31
2023-01-15T15:23:05.815Z,99712.72
2023-01-15T15:25:39.510Z,99730.19
2023-01-15T15:28:12.334Z,99738.00
2023-01-15T15:30:46.384Z,99738.88
2023-01-15T15:33:20.346Z,99731.84
2023-01-15T15:35:52.345Z,99724.03
2023-01-15T15:38:23.917Z,99743.69
2023-01-15T15:40:55.598Z,99737.34
2023-01-15T15:43:48.300Z,99742.50
2023-01-15T15:46:52.234Z,99759.97
2023-01-15T15:49:22.417Z,99748.69
2023-01-15T15:51:52.081Z,99728.75
2023-01-15T15:54:22.797Z,99744.41
2023-01-15T15:56:54.418Z,99749.72
2023-01-15T15:59:37.241Z,99771.44
2023-01-15T16:02:21.274Z,99772.19
2023-01-15T16:04:53.894Z,99712.16
2023-01-15T16:07:27.942Z,99742.84
2023-01-15T16:10:02.852Z,99764.91
2023-01-15T16:12:35.739Z,99731.00
2023-01-15T16:15:06.144Z,99767.97
2023-01-15T16:17:35.655Z,99762.84
2023-01-15T16:20:06.733Z,99773.53
2023-01-15T16:22:35.912Z,99764.78
2023-01-15T16:25:05.407Z,99730.84
2023-01-15T16:27:36.848Z,99771.06
2023-01-15T16:30:06.980Z,99767.63
2023-01-15T16:32:37.016Z,99751.28
2023-01-15T16:35:17.292Z,99756.53
2023-01-15T16:37:50.373Z,99762.94
2023-01-15T16:40:27.603Z,99758.59
2023-01-15T16:43:06.691Z,99766.53
2023-01-15T16:45:37.929Z,99701.00
2023-01-15T16:48:29.854Z,99762.28
2023-01-15T16:50:59.667Z,99764.81
2023-01-15T16:53:39.646Z,99721.47
2023-01-15T16:56:28.291Z,99757.06
2023-01-15T16:58:56.762Z,99764.91
2023-01-15T17:01:38.988Z,99757.09
2023-01-15T17:04:21.648Z,99757.09
2023-01-15T17:06:59.801Z,99725.63
2023-01-15T17:09:29.129Z,99752.84
2023-01-15T17:11:58.615Z,99753.72
2023-01-15T17:14:29.714Z,99753.78
2023-01-15T17:17:18.602Z,99757.25
2023-01-15T17:19:47.078Z,99741.66
2023-01-15T17:22:24.134Z,99761.78
2023-01-15T17:24:56.865Z,99754.06
2023-01-15T17:27:26.262Z,99760.94
2023-01-15T17:29:55.282Z,99751.31
2023-01-15T17:32:33.258Z,99749.50
2023-01-15T17:35:01.672Z,99760.84
2023-01-15T17:37:32.401Z,99753.03
2023-01-15T17:40:00.964Z,99768.94
2023-01-15T17:42:29.417Z,99771.56
2023-01-15T17:44:57.861Z,99762.88
2023-01-15T17:47:26.226Z,99778.59
2023-01-15T17:49:54.623Z,99761.03
2023-01-15T17:52:23.363Z,99762.00
2023-01-15T17:55:10.808Z,99768.19
2023-01-15T17:57:56.701Z,99747.19
2023-01-15T18:00:42.867Z,99768.22
2023-01-15T18:03:35.915Z,99798.09
2023-01-15T18:06:05.264Z,99762.91
2023-01-15T18:08:33.933Z,99729.91
2023-01-15T18:11:04.045Z,99767.38
2023-01-15T18:13:32.472Z,99762.06
2023-01-15T18:16:00.895Z,99770.03
2023-01-15T18:18:29.691Z,99747.31
2023-01-15T18:20:57.975Z,99749.09
2023-01-15T18:23:26.518Z,99750.00
2023-01-15T18:25:55.202Z,99743.97
2023-01-15T18:28:24.930Z,99738.69
2023-01-15T18:30:53.237Z,99733.41
2023-01-15T18:33:21.705Z,99726.63
2023-01-15T18:35:50.073Z,99741.44
2023-01-15T18:38:18.427Z,99774.75
2023-01-15T18:40:46.985Z,99720.59
2023-01-15T18:43:33.050Z,99736.34
2023-01-15T18:46:29.016Z,99777.56
2023-01-15T18:48:58.819Z,99732.91
2023-01-15T18:51:27.314Z,99734.66
2023-01-15T18:53:55.810Z,99752.13
2023-01-15T18:56:38.162Z,99701.50
2023-01-15T18:59:09.026Z,99741.56
2023-01-15T19:01:39.455Z,99736.34
2023-01-15T19:04:10.848Z,99734.59
2023-01-15T19:06:40.937Z,99733.78
2023-01-15T19:09:13.746Z,99734.59
2023-01-15T19:11:44.672Z,99733.78
2023-01-15T19:14:30.591Z,99717.25
2023-01-15T19:17:17.563Z,99706.75
2023-01-15T19:19:46.275Z,99712.81
2023-01-15T19:22:32.228Z,99706.72
2023-01-15T19:25:00.968Z,99726.84
2023-01-15T19:27:29.464Z,99630.00
2023-01-15T19:29:58.231Z,99703.97
2023-01-15T19:32:28.113Z,99693.44
2023-01-15T19:34:56.631Z,99692.66
2023-01-15T19:37:27.121Z,99680.44
2023-01-15T19:39:56.438Z,99702.38
2023-01-15T19:42:42.517Z,99685.81
2023-01-15T19:45:30.279Z,99674.56
2023-01-15T19:48:17.896Z,99696.47
2023-01-15T19:50:47.914Z,99678.09
2023-01-15T19:53:16.503Z,99683.22
2023-01-15T19:55:54.196Z,99656.19
2023-01-15T19:58:22.760Z,99680.59
2023-01-15T20:00:53.185Z,99669.25
2023-01-15T20:03:23.448Z,99649.94
2023-01-15T20:05:52.046Z,99661.31
2023-01-15T20:08:20.942Z,99631.78
2023-01-15T20:10:51.891Z,99654.38
2023-01-15T20:13:41.315Z,99642.09
2023-01-15T20:16:13.000Z,99652.66
2023-01-15T20:18:42.894Z,99563.75
2023-01-15T20:21:14.682Z,99629.91
2023-01-15T20:23:44.122Z,99602.97
2023-01-15T20:26:15.095Z,99621.97
2023-01-15T20:28:47.057Z,99624.56
2023-01-15T20:31:17.492Z,99626.28
2023-01-15T20:33:48.371Z,99581.72
2023-01-15T20:36:17.090Z,99610.41
2023-01-15T20:38:46.289Z,99622.59
2023-01-15T20:41:32.169Z,99622.56
2023-01-15T20:44:18.169Z,99577.25
2023-01-15T20:46:46.662Z,99607.66
2023-01-15T20:49:24.937Z,99609.41
2023-01-15T20:51:53.895Z,99596.22
2023-01-15T20:54:26.463Z,99613.03
2023-01-15T20:56:54.979Z,99602.22
2023-01-15T20:59:23.503Z,99595.25
2023-01-15T21:01:54.775Z,99597.91
2023-01-15T21:04:25.044Z,99590.13
2023-01-15T21:06:53.768Z,99583.03
2023-01-15T21:09:25.318Z,99576.31
2023-01-15T21:11:53.908Z,99378.03
2023-01-15T21:14:24.268Z,99599.00
2023-01-15T21:16:53.678Z,99592.06
2023-01-15T21:19:22.269Z,99592.81
2023-01-15T21:21:52.252Z,99590.28
2023-01-15T21:24:20.924Z,99576.22
2023-01-15T21:26:49.434Z,99580.59
2023-01-15T21:29:18.322Z,99562.22
2023-01-15T21:31:47.417Z,99555.19
2023-01-15T21:34:16.021Z,99556.03
2023-01-15T21:36:44.584Z,99546.44
2023-01-15T21:39:17.130Z,99501.19
2023-01-15T21:42:03.428Z,99540.09
2023-01-15T21:44:32.794Z,99536.59
2023-01-15T21:47:03.676Z,99520.84
2023-01-15T21:49:33.466Z,99527.69
2023-01-15T21:52:03.520Z,99524.22
2023-01-15T21:54:34.048Z,99514.53
2023-01-15T21:57:04.147Z,99524.97
2023-01-15T21:59:32.837Z,99520.66
2023-01-15T22:02:02.438Z,99510.16
2023-01-15T22:04:35.983Z,99507.59
2023-01-15T22:07:04.873Z,99497.22
2023-01-15T22:09:36.193Z,99500.72
2023-01-15T22:12:05.395Z,99500.81
2023-01-15T22:14:35.022Z,99492.00
2023-01-15T22:17:05.161Z,99503.50
2023-01-15T22:19:35.128Z,99492.13
2023-01-15T22:22:07.611Z,99491.16
2023-01-15T22:24:39.488Z,99488.53
2023-01-15T22:27:10.117Z,99478.00
2023-01-15T22:29:40.085Z,99481.50
2023-01-15T22:32:11.093Z,99462.41
2023-01-15T22:34:40.244Z,99470.09
2023-01-15T22:37:08.830Z,99478.88
2023-01-15T22:39:38.665Z,99463.25
2023-01-15T22:42:24.501Z,99465.00
2023-01-15T22:44:53.120Z,99463.25
2023-01-15T22:47:21.826Z,99462.44
2023-01-15T22:49:50.897Z,99313.81
2023-01-15T22:52:20.815Z,99453.72
2023-01-15T22:54:50.603Z,99447.56
2023-01-15T22:57:19.119Z,99441.56
2023-01-15T22:59:47.795Z,99403.97
2023-01-15T23:02:16.937Z,99431.81
2023-01-15T23:04:45.614Z,99428.28
2023-01-15T23:07:14.009Z,99419.56
2023-01-15T23:09:42.501Z,99423.94
2023-01-15T23:12:12.456Z,99424.84
2023-01-15T23:14:41.128Z,99419.53
2023-01-15T23:17:09.626Z,99407.41
2023-01-15T23:19:38.414Z,99420.53
2023-01-15T23:22:06.947Z,99414.38
2023-01-15T23:24:35.636Z,99417.00
2023-01-15T23:27:04.092Z,99393.59
2023-01-15T23:29:34.392Z,99364.81
2023-01-15T23:32:02.969Z,99394.38
2023-01-15T23:34:31.275Z,99397.03
2023-01-15T23:36:59.661Z,99401.38
2023-01-15T23:39:28.014Z,99379.56
2023-01-15T23:42:14.086Z,99350.91
2023-01-15T23:45:01.200Z,99331.84
2023-01-15T23:47:29.597Z,99371.69
2023-01-15T23:49:57.978Z,99372.59
2023-01-15T23:52:26.386Z,99325.56
2023-01-15T23:54:54.754Z,99365.66
2023-01-15T23:57:23.241Z,99351.59
2023-01-15T23:59:53.133Z,99303.81
